Skip Navigation Links
NOAA logo - Click to go to the NOAA homepage
NOAA's National Weather Service
Alaska Aviation Weather Unit
  NWS logo - Click to go to the NWS homepage
Left Navbar Graphic     23 AKDT = 07 GMT

   
NOAA is celebrating 200 years of science, service, and stewardship. Visit the NOAA 200th celebration Web site to learn more.
USA.gov is the U.S. Government's official Web portal to all Federal, state and local government Web resources and services.
Facebook
NWS on Facebook

Important Change Regarding the AAWU Web Presence

 

Over the last several months, the AAWU has been working to navigate its webpages to a nationally supported server. Security, as well as other needs, have necessitated the change.  In the process, we have made an effort to enhance the functionality of our website, as well as some of our products. As of June 20, 2017, aawu.arh.noaa.gov will be discontinued. The new AAWU web address is weather.gov/aawu. It is now live and will run in-parallel with the old site until it is discontinued. Please send any feedback or questions regarding the new webpages to nws.ar.aawu.webauthors@noaa.gov.  Thank you for your patience during this time of transition.
AAWU Home :: Display TAF Add Bookmark
METAR PAPN 240156Z AUTO 16011KT 10SM -RA OVC043 09/07 A2994 RMK AO2
 SLP139 P0002 T00940072=

METAR PAPN 240356Z AUTO 17012KT 10SM -RA OVC048 09/07 A2990 RMK AO2
 SLP126 P0001 T00890072=

METAR PAPN 240456Z AUTO 15010KT 10SM -RA BKN039 OVC060 08/07 A2988
 RMK AO2 SLP121 P0003 T00830072=

METAR PAPN 240556Z AUTO 18011KT 10SM -RA OVC031 08/07 A2988 RMK AO2
 SLP120 P0001 60008 T00830067 10111 20083 56012=

SPECI PAPN 240723Z AUTO 19009KT 10SM -RA BKN029 BKN038 OVC060 08/06
 A2988 RMK AO2 P0000=

SPECI PAPN 240737Z AUTO 19009KT 10SM -RA SCT029 BKN043 OVC055 08/06
 A2987 RMK AO2 P0000=


NOAA's National Weather Service
Alaska Aviation Weather Unit
6930 Sand Lake Road
Anchorage, AK 99502-1845
Disclaimer
Credits
Glossary
Privacy Policy
About Us
Career Opportunities
Contact AAWU Internet Services Site last modified: April, 17th 2012